createdAt,value
2022-10-22T00:01:45.615Z,3.03
2022-10-22T00:04:13.447Z,2.72
2022-10-22T00:06:45.895Z,3.08
2022-10-22T00:09:14.831Z,3.38
2022-10-22T00:11:45.751Z,2.78
2022-10-22T00:14:12.612Z,2.97
2022-10-22T00:16:40.282Z,3.05
2022-10-22T00:19:08.097Z,3.90
2022-10-22T00:21:37.944Z,4.15
2022-10-22T00:24:12.803Z,3.40
2022-10-22T00:27:00.765Z,3.22
2022-10-22T00:29:29.374Z,2.58
2022-10-22T00:34:34.260Z,3.03
2022-10-22T00:37:12.267Z,3.35
2022-10-22T00:39:41.055Z,3.63
2022-10-22T00:42:16.137Z,3.00
2022-10-22T00:45:10.793Z,3.33
2022-10-22T00:47:45.047Z,2.25
2022-10-22T00:50:26.022Z,3.03
2022-10-22T00:52:52.969Z,2.65
2022-10-22T00:55:27.180Z,3.33
2022-10-22T00:57:56.445Z,3.45
2022-10-22T01:00:23.369Z,3.72
2022-10-22T01:02:59.998Z,3.53
2022-10-22T01:05:29.323Z,2.50
2022-10-22T01:08:05.722Z,3.20
2022-10-22T01:10:44.743Z,3.25
2022-10-22T01:13:26.577Z,2.00
2022-10-22T01:16:08.837Z,2.88
2022-10-22T01:19:02.850Z,3.20
2022-10-22T01:21:47.541Z,3.20
2022-10-22T01:24:38.929Z,3.83
2022-10-22T01:27:18.771Z,3.45
2022-10-22T01:29:58.997Z,2.92
2022-10-22T01:32:35.057Z,2.78
2022-10-22T01:35:05.591Z,2.78
2022-10-22T01:37:37.811Z,2.95
2022-10-22T01:40:07.410Z,3.75
2022-10-22T01:42:33.848Z,3.45
2022-10-22T01:45:00.554Z,3.03
2022-10-22T01:47:44.914Z,2.25
2022-10-22T01:50:41.735Z,3.45
2022-10-22T01:53:31.736Z,3.10
2022-10-22T01:56:19.703Z,3.75
2022-10-22T01:59:10.238Z,3.60
2022-10-22T02:01:56.823Z,3.25
2022-10-22T02:04:30.975Z,3.30
2022-10-22T02:07:05.355Z,3.75
2022-10-22T02:09:32.923Z,3.00
2022-10-22T02:12:02.386Z,3.55
2022-10-22T02:14:32.741Z,2.90
2022-10-22T02:17:00.278Z,3.35
2022-10-22T02:19:45.774Z,4.00
2022-10-22T02:22:12.501Z,4.18
2022-10-22T02:24:39.148Z,2.38
2022-10-22T02:27:43.573Z,2.65
2022-10-22T02:30:20.196Z,4.35
2022-10-22T02:33:02.457Z,4.45
2022-10-22T02:35:32.590Z,4.90
2022-10-22T02:38:01.966Z,3.05
2022-10-22T02:40:32.589Z,3.33
2022-10-22T02:43:07.194Z,4.32
2022-10-22T02:45:34.680Z,4.55
2022-10-22T02:50:47.290Z,3.42
2022-10-22T02:53:15.316Z,3.15
2022-10-22T02:55:41.723Z,4.40
2022-10-22T02:58:08.276Z,4.38
2022-10-22T03:00:37.242Z,3.95
2022-10-22T03:03:08.244Z,3.38
2022-10-22T03:05:34.678Z,3.17
2022-10-22T03:08:01.084Z,3.30
2022-10-22T03:10:28.958Z,3.17
2022-10-22T03:12:57.691Z,4.13
2022-10-22T03:15:29.367Z,4.10
2022-10-22T03:18:02.479Z,3.47
2022-10-22T03:20:38.078Z,4.18
2022-10-22T03:23:04.634Z,3.05
2022-10-22T03:25:34.690Z,4.47
2022-10-22T03:28:16.573Z,4.30
2022-10-22T03:30:42.961Z,4.57
2022-10-22T03:33:09.432Z,3.35
2022-10-22T03:35:43.796Z,4.00
2022-10-22T03:38:18.061Z,3.60
2022-10-22T03:41:10.156Z,4.03
2022-10-22T03:43:42.487Z,3.97
2022-10-22T03:48:44.102Z,3.08
2022-10-22T03:51:37.999Z,2.80
2022-10-22T03:54:07.461Z,2.50
2022-10-22T03:56:40.360Z,4.43
2022-10-22T03:59:09.055Z,3.80
2022-10-22T04:01:35.598Z,5.35
2022-10-22T04:04:02.044Z,4.05
2022-10-22T04:06:33.353Z,4.35
2022-10-22T04:09:02.111Z,4.13
2022-10-22T04:11:29.829Z,3.67
2022-10-22T04:13:58.929Z,3.38
2022-10-22T04:16:35.415Z,3.95
2022-10-22T04:19:03.236Z,4.47
2022-10-22T04:21:32.084Z,4.03
2022-10-22T04:24:03.683Z,3.08
2022-10-22T04:26:32.390Z,3.85
2022-10-22T04:28:58.827Z,3.63
2022-10-22T04:31:27.750Z,4.40
2022-10-22T04:33:59.428Z,4.00
2022-10-22T04:36:29.398Z,4.65
2022-10-22T04:39:01.116Z,4.15
2022-10-22T04:41:34.254Z,3.83
2022-10-22T04:44:01.105Z,4.65
2022-10-22T04:46:34.485Z,3.17
2022-10-22T04:49:03.288Z,3.80
2022-10-22T04:51:31.796Z,4.03
2022-10-22T04:54:02.665Z,4.43
2022-10-22T04:56:32.856Z,4.63
2022-10-22T04:59:12.565Z,4.10
2022-10-22T05:01:43.012Z,4.13
2022-10-22T05:04:16.224Z,3.80
2022-10-22T05:06:43.341Z,4.13
2022-10-22T05:09:15.741Z,3.50
2022-10-22T05:11:49.584Z,3.35
2022-10-22T05:14:18.422Z,4.30
2022-10-22T05:16:47.928Z,3.97
2022-10-22T05:19:18.906Z,4.57
2022-10-22T05:21:48.822Z,3.22
2022-10-22T05:24:15.453Z,3.63
2022-10-22T05:26:43.106Z,3.80
2022-10-22T05:29:20.941Z,4.00
2022-10-22T05:31:53.209Z,4.35
2022-10-22T05:36:46.271Z,4.32
2022-10-22T05:39:13.181Z,3.65
2022-10-22T05:41:39.772Z,4.45
2022-10-22T05:44:13.739Z,4.35
2022-10-22T05:46:40.749Z,3.85
2022-10-22T05:49:07.693Z,4.45
2022-10-22T05:51:36.443Z,3.53
2022-10-22T05:54:07.464Z,3.60
2022-10-22T05:56:35.088Z,3.15
2022-10-22T06:01:35.779Z,4.00
2022-10-22T06:04:09.792Z,4.57
2022-10-22T06:06:47.661Z,4.43
2022-10-22T06:09:27.121Z,5.07
2022-10-22T06:11:53.704Z,4.35
2022-10-22T06:14:21.074Z,4.15
2022-10-22T06:16:47.936Z,4.93
2022-10-22T06:19:17.033Z,4.20
2022-10-22T06:21:43.969Z,3.83
2022-10-22T06:24:11.007Z,3.78
2022-10-22T06:26:41.058Z,4.00
2022-10-22T06:29:07.892Z,3.95
2022-10-22T06:31:40.701Z,3.47
2022-10-22T06:34:11.191Z,4.22
2022-10-22T06:36:38.203Z,3.67
2022-10-22T06:39:07.318Z,3.00
2022-10-22T06:41:33.854Z,2.95
2022-10-22T06:44:00.452Z,4.03
2022-10-22T06:46:27.193Z,4.22
2022-10-22T06:48:59.031Z,4.25
2022-10-22T06:51:29.364Z,3.30
2022-10-22T06:53:56.928Z,2.97
2022-10-22T06:56:25.465Z,3.28
2022-10-22T06:58:57.243Z,2.60
2022-10-22T07:01:31.644Z,3.80
2022-10-22T07:03:58.986Z,3.08
2022-10-22T07:06:29.394Z,4.05
2022-10-22T07:08:57.589Z,4.10
2022-10-22T07:11:26.909Z,2.70
2022-10-22T07:14:01.032Z,2.28
2022-10-22T07:16:32.080Z,3.78
2022-10-22T07:19:03.459Z,4.10
2022-10-22T07:21:33.001Z,2.53
2022-10-22T07:23:59.699Z,2.72
2022-10-22T07:26:29.475Z,2.25
2022-10-22T07:28:56.416Z,3.25
2022-10-22T07:31:23.048Z,3.08
2022-10-22T07:33:49.542Z,3.10
2022-10-22T07:36:19.212Z,2.78
2022-10-22T07:38:47.783Z,4.32
2022-10-22T07:41:16.141Z,3.28
2022-10-22T07:43:43.331Z,2.70
2022-10-22T07:46:09.800Z,2.90
2022-10-22T07:48:37.102Z,2.85
2022-10-22T07:51:04.090Z,2.60
2022-10-22T07:53:30.538Z,2.80
2022-10-22T07:56:04.556Z,3.10
2022-10-22T07:58:31.193Z,2.75
2022-10-22T08:01:03.007Z,3.92
2022-10-22T08:03:32.437Z,2.58
2022-10-22T08:05:59.831Z,2.90
2022-10-22T08:08:29.758Z,3.45
2022-10-22T08:10:59.293Z,3.45
2022-10-22T08:13:28.626Z,2.17
2022-10-22T08:15:57.498Z,1.85
2022-10-22T08:18:27.318Z,3.10
2022-10-22T08:20:53.914Z,2.97
2022-10-22T08:23:27.611Z,2.88
2022-10-22T08:26:00.435Z,2.08
2022-10-22T08:28:29.769Z,3.00
2022-10-22T08:30:56.271Z,2.90
2022-10-22T08:33:28.229Z,2.78
2022-10-22T08:35:57.383Z,2.97
2022-10-22T08:38:23.833Z,2.92
2022-10-22T08:40:54.284Z,2.25
2022-10-22T08:43:35.618Z,2.30
2022-10-22T08:46:33.545Z,3.00
2022-10-22T08:51:40.378Z,2.65
2022-10-22T08:54:42.981Z,2.75
2022-10-22T08:57:09.384Z,2.95
2022-10-22T08:59:46.607Z,2.53
2022-10-22T09:02:27.020Z,2.80
2022-10-22T09:05:18.433Z,2.55
2022-10-22T09:07:51.480Z,2.88
2022-10-22T09:10:24.276Z,2.55
2022-10-22T09:12:50.809Z,2.88
2022-10-22T09:15:19.536Z,2.67
2022-10-22T09:18:03.874Z,2.90
2022-10-22T09:20:43.290Z,2.75
2022-10-22T09:23:26.841Z,2.80
2022-10-22T09:25:56.592Z,3.20
2022-10-22T09:28:28.560Z,3.38
2022-10-22T09:30:55.337Z,3.25
2022-10-22T09:33:30.810Z,3.25
2022-10-22T09:36:03.618Z,3.13
2022-10-22T09:38:32.522Z,3.10
2022-10-22T09:41:05.563Z,3.50
2022-10-22T09:43:33.059Z,3.83
2022-10-22T09:46:02.369Z,3.55
2022-10-22T09:48:35.794Z,3.42
2022-10-22T09:51:20.931Z,2.47
2022-10-22T09:53:59.402Z,3.60
2022-10-22T09:58:59.949Z,3.63
2022-10-22T10:01:33.169Z,4.25
2022-10-22T10:04:09.300Z,4.22
2022-10-22T10:06:40.130Z,3.67
2022-10-22T10:09:16.821Z,2.97
2022-10-22T10:11:56.471Z,3.70
2022-10-22T10:14:45.141Z,2.75
2022-10-22T10:17:22.452Z,3.42
2022-10-22T10:20:34.418Z,3.53
2022-10-22T10:23:14.943Z,4.00
2022-10-22T10:26:08.256Z,4.10
2022-10-22T10:28:54.627Z,4.10
2022-10-22T10:31:51.512Z,3.92
2022-10-22T10:34:36.464Z,3.85
2022-10-22T10:37:21.222Z,3.72
2022-10-22T10:42:48.162Z,3.75
2022-10-22T10:45:26.469Z,3.83
2022-10-22T10:48:38.258Z,4.13
2022-10-22T10:51:32.646Z,3.75
2022-10-22T10:54:29.859Z,3.90
2022-10-22T11:00:06.294Z,4.00
2022-10-22T11:03:04.489Z,3.45
2022-10-22T11:05:44.540Z,3.78
2022-10-22T11:08:26.464Z,3.78
2022-10-22T11:10:59.241Z,3.92
2022-10-22T11:13:55.649Z,4.18
2022-10-22T11:16:29.190Z,3.95
2022-10-22T11:19:08.438Z,4.10
2022-10-22T11:21:42.519Z,4.13
2022-10-22T11:24:48.968Z,3.95
2022-10-22T11:27:29.851Z,4.05
2022-10-22T11:30:03.138Z,3.45
2022-10-22T11:32:31.891Z,2.83
2022-10-22T11:35:02.176Z,2.58
2022-10-22T11:37:35.044Z,3.97
2022-10-22T11:40:18.905Z,3.10
2022-10-22T11:42:49.463Z,4.00
2022-10-22T11:45:15.785Z,3.42
2022-10-22T11:48:09.763Z,2.90
2022-10-22T11:50:57.316Z,3.38
2022-10-22T11:53:35.562Z,3.78
2022-10-22T11:56:23.897Z,3.17
2022-10-22T11:58:53.995Z,3.50
2022-10-22T12:01:27.045Z,3.58
2022-10-22T12:04:21.983Z,3.25
2022-10-22T12:07:02.737Z,3.25
2022-10-22T12:09:36.227Z,2.88
2022-10-22T12:12:12.239Z,2.97
2022-10-22T12:14:53.021Z,2.35
2022-10-22T12:17:21.712Z,1.92
2022-10-22T12:19:56.419Z,1.60
2022-10-22T12:22:33.381Z,0.82
2022-10-22T12:25:02.124Z,0.68
2022-10-22T12:27:41.765Z,0.65
2022-10-22T12:30:27.015Z,0.70
2022-10-22T12:32:57.251Z,0.55
2022-10-22T12:35:34.490Z,0.70
2022-10-22T12:38:03.195Z,0.30
2022-10-22T12:40:34.161Z,0.80
2022-10-22T12:43:11.641Z,0.68
2022-10-22T12:45:39.513Z,0.57
2022-10-22T12:48:14.633Z,0.50
2022-10-22T12:50:44.751Z,0.70
2022-10-22T12:53:22.660Z,0.60
2022-10-22T12:55:55.406Z,0.50
2022-10-22T12:58:38.196Z,0.73
2022-10-22T13:01:05.417Z,0.60
2022-10-22T13:03:43.386Z,0.80
2022-10-22T13:06:18.536Z,0.75
2022-10-22T13:09:28.469Z,0.52
2022-10-22T13:12:07.443Z,0.77
2022-10-22T13:14:37.638Z,0.90
2022-10-22T13:17:10.488Z,0.60
2022-10-22T13:19:49.267Z,1.00
2022-10-22T13:22:33.700Z,0.90
2022-10-22T13:25:22.063Z,0.82
2022-10-22T13:27:52.155Z,1.02
2022-10-22T13:30:33.217Z,1.25
2022-10-22T13:33:21.593Z,1.10
2022-10-22T13:35:48.965Z,0.90
2022-10-22T13:38:20.278Z,1.10
2022-10-22T13:40:47.764Z,0.90
2022-10-22T13:43:15.914Z,0.80
2022-10-22T13:45:44.539Z,0.80
2022-10-22T13:48:19.184Z,1.20
2022-10-22T13:50:46.429Z,1.00
2022-10-22T13:53:26.597Z,1.15
2022-10-22T13:55:53.215Z,1.30
2022-10-22T13:58:28.527Z,0.73
2022-10-22T14:00:59.932Z,1.20
2022-10-22T14:03:30.407Z,1.40
2022-10-22T14:05:57.374Z,1.48
2022-10-22T14:08:26.009Z,1.48
2022-10-22T14:10:53.192Z,1.40
2022-10-22T14:13:21.108Z,1.52
2022-10-22T14:15:56.657Z,1.55
2022-10-22T14:18:28.788Z,1.55
2022-10-22T14:26:00.164Z,1.40
2022-10-22T14:28:41.306Z,1.15
2022-10-22T14:31:13.333Z,1.10
2022-10-22T14:33:40.396Z,1.60
2022-10-22T14:36:07.338Z,1.63
2022-10-22T14:38:33.796Z,1.77
2022-10-22T14:41:02.577Z,1.42
2022-10-22T14:43:31.274Z,1.42
2022-10-22T14:45:58.064Z,1.42
2022-10-22T14:48:24.744Z,1.50
2022-10-22T14:50:51.544Z,1.58
2022-10-22T14:53:18.227Z,1.02
2022-10-22T14:55:51.151Z,1.40
2022-10-22T14:58:20.576Z,1.58
2022-10-22T15:00:47.040Z,1.30
2022-10-22T15:03:13.600Z,1.70
2022-10-22T15:05:46.483Z,1.70
2022-10-22T15:08:14.672Z,1.30
2022-10-22T15:10:42.641Z,1.48
2022-10-22T15:13:09.493Z,1.52
2022-10-22T15:15:39.587Z,1.40
2022-10-22T15:18:06.549Z,1.17
2022-10-22T15:20:32.976Z,1.30
2022-10-22T15:22:59.490Z,1.42
2022-10-22T15:25:31.328Z,1.00
2022-10-22T15:28:01.888Z,1.30
2022-10-22T15:30:31.347Z,1.13
2022-10-22T15:32:59.826Z,0.82
2022-10-22T15:35:28.490Z,1.60
2022-10-22T15:37:54.952Z,0.90
2022-10-22T15:40:21.386Z,0.82
2022-10-22T15:42:47.824Z,1.25
2022-10-22T15:45:19.336Z,1.00
2022-10-22T15:47:48.070Z,1.00
2022-10-22T15:50:15.157Z,1.00
2022-10-22T15:52:49.829Z,0.98
2022-10-22T15:55:18.816Z,1.00
2022-10-22T15:57:48.772Z,0.95
2022-10-22T16:00:15.977Z,0.90
2022-10-22T16:02:42.356Z,1.15
2022-10-22T16:05:10.086Z,1.00
2022-10-22T16:07:36.558Z,1.30
2022-10-22T16:10:03.267Z,1.77
2022-10-22T16:12:29.709Z,1.17
2022-10-22T16:14:56.153Z,0.60
2022-10-22T16:17:23.323Z,0.80
2022-10-22T16:19:49.776Z,0.80
2022-10-22T16:22:16.177Z,0.60
2022-10-22T16:24:42.844Z,0.82
2022-10-22T16:27:10.055Z,1.05
2022-10-22T16:29:40.401Z,0.70
2022-10-22T16:32:07.484Z,1.30
2022-10-22T16:34:34.718Z,0.70
2022-10-22T16:37:01.146Z,1.13
2022-10-22T16:39:27.644Z,0.88
2022-10-22T16:41:54.134Z,1.13
2022-10-22T16:44:20.634Z,1.70
2022-10-22T16:46:47.233Z,1.63
2022-10-22T16:49:14.457Z,1.33
2022-10-22T16:51:40.837Z,1.73
2022-10-22T16:54:11.274Z,2.33
2022-10-22T16:56:39.348Z,2.72
2022-10-22T16:59:06.510Z,2.38
2022-10-22T17:01:40.716Z,1.52
2022-10-22T17:04:08.080Z,1.40
2022-10-22T17:06:36.078Z,1.85
2022-10-22T17:09:04.554Z,1.85
2022-10-22T17:11:35.717Z,1.30
2022-10-22T17:14:04.143Z,2.35
2022-10-22T17:16:30.619Z,1.67
2022-10-22T17:18:57.944Z,2.47
2022-10-22T17:21:25.245Z,2.47
2022-10-22T17:23:58.627Z,2.65
2022-10-22T17:26:26.852Z,1.75
2022-10-22T17:28:53.997Z,1.35
2022-10-22T17:31:25.820Z,1.70
2022-10-22T17:33:54.414Z,2.55
2022-10-22T17:36:22.335Z,2.10
2022-10-22T17:38:54.350Z,1.75
2022-10-22T17:41:23.347Z,1.45
2022-10-22T17:43:49.901Z,1.45
2022-10-22T17:46:18.947Z,2.00
2022-10-22T17:48:49.486Z,1.55
2022-10-22T17:51:18.523Z,1.88
2022-10-22T17:53:50.371Z,2.25
2022-10-22T17:56:22.192Z,1.58
2022-10-22T17:58:49.298Z,1.50
2022-10-22T18:01:30.429Z,1.98
2022-10-22T18:04:08.259Z,2.55
2022-10-22T18:06:35.480Z,2.08
2022-10-22T18:09:11.520Z,1.73
2022-10-22T18:11:39.803Z,1.45
2022-10-22T18:14:06.317Z,2.17
2022-10-22T18:16:32.870Z,8.18
2022-10-22T18:19:00.024Z,4.32
2022-10-22T18:21:28.460Z,9.98
2022-10-22T18:24:20.571Z,3.38
2022-10-22T18:26:47.017Z,2.10
2022-10-22T18:29:18.371Z,3.05
2022-10-22T18:31:46.346Z,3.00
2022-10-22T18:34:17.638Z,3.47
2022-10-22T18:36:47.355Z,3.95
2022-10-22T18:39:17.417Z,2.10
2022-10-22T18:41:43.896Z,2.70
2022-10-22T18:44:16.582Z,2.35
2022-10-22T18:46:45.899Z,1.75
2022-10-22T18:49:18.203Z,2.72
2022-10-22T18:51:46.279Z,2.70
2022-10-22T18:54:22.555Z,2.15
2022-10-22T18:56:49.899Z,2.35
2022-10-22T18:59:23.345Z,2.58
2022-10-22T19:01:52.730Z,2.10
2022-10-22T19:04:19.205Z,1.85
2022-10-22T19:06:46.323Z,2.00
2022-10-22T19:09:14.828Z,1.70
2022-10-22T19:11:43.477Z,1.98
2022-10-22T19:14:10.096Z,2.35
2022-10-22T19:16:37.588Z,1.25
2022-10-22T19:19:06.935Z,2.30
2022-10-22T19:21:33.521Z,1.95
2022-10-22T19:24:01.167Z,2.50
2022-10-22T19:26:29.968Z,1.95
2022-10-22T19:28:58.163Z,4.30
2022-10-22T19:31:28.440Z,3.00
2022-10-22T19:33:55.572Z,2.50
2022-10-22T19:36:27.646Z,4.00
2022-10-22T19:39:00.490Z,1.80
2022-10-22T19:41:28.708Z,2.10
2022-10-22T19:43:56.203Z,1.85
2022-10-22T19:46:23.371Z,2.45
2022-10-22T19:48:51.390Z,2.28
2022-10-22T19:51:23.103Z,2.78
2022-10-22T19:53:50.335Z,2.42
2022-10-22T19:56:19.844Z,2.38
2022-10-22T19:58:46.371Z,2.65
2022-10-22T20:01:15.247Z,3.80
2022-10-22T20:03:42.019Z,2.03
2022-10-22T20:06:09.921Z,3.15
2022-10-22T20:08:38.000Z,3.05
2022-10-22T20:11:06.952Z,2.17
2022-10-22T20:13:34.965Z,2.22
2022-10-22T20:16:01.592Z,2.40
2022-10-22T20:18:28.038Z,1.45
2022-10-22T20:20:54.489Z,1.17
2022-10-22T20:23:21.004Z,1.83
2022-10-22T20:25:47.882Z,2.10
2022-10-22T20:28:14.804Z,1.80
2022-10-22T20:30:45.754Z,1.73
2022-10-22T20:33:13.355Z,2.67
2022-10-22T20:35:40.214Z,1.67
2022-10-22T20:38:12.262Z,2.05
2022-10-22T20:40:38.741Z,3.35
2022-10-22T20:43:05.924Z,1.52
2022-10-22T20:45:35.603Z,2.13
2022-10-22T20:48:02.878Z,2.83
2022-10-22T20:50:32.223Z,2.85
2022-10-22T20:52:59.205Z,3.50
2022-10-22T20:55:26.309Z,3.17
2022-10-22T20:57:58.021Z,2.92
2022-10-22T21:00:24.478Z,2.20
2022-10-22T21:02:53.224Z,2.13
2022-10-22T21:05:20.377Z,1.88
2022-10-22T21:07:46.752Z,1.50
2022-10-22T21:13:36.720Z,2.20
2022-10-22T21:18:38.399Z,1.45
2022-10-22T21:23:47.496Z,1.80
2022-10-22T21:26:14.027Z,2.35
2022-10-22T21:28:43.399Z,2.25
2022-10-22T21:31:11.009Z,3.03
2022-10-22T21:33:39.089Z,2.63
2022-10-22T21:36:06.855Z,2.97
2022-10-22T21:38:33.419Z,2.55
2022-10-22T21:41:05.659Z,2.58
2022-10-22T21:43:32.230Z,1.80
2022-10-22T21:46:14.990Z,2.88
2022-10-22T21:48:42.805Z,1.70
2022-10-22T21:51:14.901Z,2.30
2022-10-22T21:53:41.860Z,2.92
2022-10-22T21:56:15.617Z,2.47
2022-10-22T21:58:42.549Z,2.53
2022-10-22T22:01:12.740Z,2.55
2022-10-22T22:03:42.998Z,3.30
2022-10-22T22:06:12.430Z,3.13
2022-10-22T22:08:39.699Z,2.75
2022-10-22T22:11:12.121Z,2.28
2022-10-22T22:16:08.576Z,1.80
2022-10-22T22:18:35.832Z,1.48
2022-10-22T22:21:10.465Z,1.90
2022-10-22T22:23:42.484Z,1.40
2022-10-22T22:26:09.103Z,1.92
2022-10-22T22:28:35.969Z,1.48
2022-10-22T22:31:11.333Z,2.00
2022-10-22T22:33:37.715Z,1.38
2022-10-22T22:36:04.984Z,1.10
2022-10-22T22:38:31.388Z,1.73
2022-10-22T22:41:01.246Z,1.30
2022-10-22T22:43:27.916Z,1.92
2022-10-22T22:46:05.552Z,1.50
2022-10-22T22:48:32.628Z,2.30
2022-10-22T22:51:00.227Z,1.33
2022-10-22T22:53:28.167Z,1.25
2022-10-22T22:56:11.418Z,1.38
2022-10-22T22:58:40.403Z,1.67
2022-10-22T23:01:19.696Z,1.90
2022-10-22T23:03:55.441Z,1.23
2022-10-22T23:06:22.214Z,1.50
2022-10-22T23:08:52.647Z,1.83
2022-10-22T23:11:20.183Z,1.17
2022-10-22T23:13:47.081Z,1.00
2022-10-22T23:16:21.149Z,1.65
2022-10-22T23:18:50.758Z,1.08
2022-10-22T23:21:27.059Z,1.27
2022-10-22T23:23:56.191Z,0.82
2022-10-22T23:26:26.791Z,1.05
2022-10-22T23:28:57.490Z,1.13
2022-10-22T23:31:23.905Z,1.23
2022-10-22T23:33:51.886Z,0.98
2022-10-22T23:36:20.665Z,1.40
2022-10-22T23:38:50.151Z,1.00
2022-10-22T23:41:17.295Z,1.23
2022-10-22T23:43:44.839Z,1.20
2022-10-22T23:46:13.673Z,1.23
2022-10-22T23:48:43.199Z,1.13
2022-10-22T23:51:13.049Z,1.42
2022-10-22T23:53:41.188Z,1.02
2022-10-22T23:56:16.600Z,1.40
2022-10-22T23:58:43.129Z,1.42
